createdAt,value
2018-06-08T00:00:05.406Z,96970.64
2018-06-08T00:02:32.877Z,96970.78
2018-06-08T00:05:00.333Z,96971.14
2018-06-08T00:07:27.844Z,96972.47
2018-06-08T00:09:55.880Z,96965.83
2018-06-08T00:12:23.839Z,96962.18
2018-06-08T00:14:51.301Z,96959.94
2018-06-08T00:17:18.777Z,96961.08
2018-06-08T00:19:46.284Z,96956.17
2018-06-08T00:22:13.942Z,96954.79
2018-06-08T00:24:41.361Z,96948.91
2018-06-08T00:27:08.811Z,96940.84
2018-06-08T00:29:36.303Z,96926.68
2018-06-08T00:32:03.735Z,96927.36
2018-06-08T00:34:31.164Z,96922.46
2018-06-08T00:36:58.562Z,96927.51
2018-06-08T00:39:26.047Z,96928.83
2018-06-08T00:41:53.531Z,96918.05
2018-06-08T00:44:21.027Z,96917.91
2018-06-08T00:46:49.710Z,96923.45
2018-06-08T00:49:17.191Z,96913.67
2018-06-08T00:51:44.690Z,96905.47
2018-06-08T00:54:12.097Z,96902.51
2018-06-08T00:56:39.554Z,96895.41
2018-06-08T00:59:15.610Z,96888.70
2018-06-08T01:01:43.076Z,96880.91
2018-06-08T01:04:10.484Z,96877.24
2018-06-08T01:06:37.892Z,96878.16
2018-06-08T01:09:05.475Z,96868.81
2018-06-08T01:11:32.907Z,96867.16
2018-06-08T01:22:31.829Z,96864.06
2018-06-08T01:24:59.929Z,96861.01
2018-06-08T01:27:27.516Z,96867.03
2018-06-08T01:29:54.946Z,96872.39
2018-06-08T01:32:22.426Z,96869.97
2018-06-08T01:34:49.867Z,96873.89
2018-06-08T01:37:17.273Z,96870.76
2018-06-08T01:39:45.397Z,96869.87
2018-06-08T01:42:12.831Z,96865.05
2018-06-08T01:44:40.250Z,96856.05
2018-06-08T01:47:07.693Z,96853.39
2018-06-08T01:49:35.090Z,96850.14
2018-06-08T01:52:03.373Z,96844.49
2018-06-08T01:54:30.787Z,96844.32
2018-06-08T01:56:58.220Z,96846.23
2018-06-08T01:59:25.658Z,96843.25
2018-06-08T02:01:53.230Z,96846.74
2018-06-08T02:04:22.402Z,96849.06
2018-06-08T02:06:49.877Z,96849.55
2018-06-08T02:09:18.022Z,96858.19
2018-06-08T02:11:45.463Z,96855.83
2018-06-08T02:14:12.877Z,96863.33
2018-06-08T02:16:40.315Z,96863.50
2018-06-08T02:19:08.977Z,96868.73
2018-06-08T02:21:40.778Z,96864.92
2018-06-08T02:24:08.594Z,96865.61
2018-06-08T02:26:36.019Z,96865.89
2018-06-08T02:29:03.513Z,96862.59
2018-06-08T02:31:30.923Z,96863.15
2018-06-08T02:33:58.322Z,96861.82
2018-06-08T02:36:25.782Z,96859.05
2018-06-08T02:38:53.236Z,96861.27
2018-06-08T02:41:20.777Z,96860.23
2018-06-08T02:43:52.543Z,96865.13
2018-06-08T02:46:21.586Z,96872.83
2018-06-08T02:48:49.063Z,96876.08
2018-06-08T02:51:16.514Z,96881.91
2018-06-08T02:53:44.028Z,96879.76
2018-06-08T02:56:11.495Z,96874.06
2018-06-08T02:58:40.157Z,96878.28
2018-06-08T03:01:07.620Z,96880.81
2018-06-08T03:03:35.166Z,96876.59
2018-06-08T03:06:02.637Z,96873.12
2018-06-08T03:08:30.091Z,96877.89
2018-06-08T03:10:57.523Z,96877.20
2018-06-08T03:13:24.919Z,96875.95
2018-06-08T03:15:52.443Z,96881.45
2018-06-08T03:18:20.940Z,96880.39
2018-06-08T03:20:48.429Z,96876.96
2018-06-08T03:23:15.833Z,96868.50
2018-06-08T03:25:43.299Z,96873.44
2018-06-08T03:28:12.227Z,96862.72
2018-06-08T03:30:39.653Z,96866.58
2018-06-08T03:33:07.398Z,96875.67
2018-06-08T03:35:35.591Z,96873.44
2018-06-08T03:38:03.454Z,96867.76
2018-06-08T03:40:32.051Z,96864.23
2018-06-08T03:42:59.515Z,96871.02
2018-06-08T03:45:27.067Z,96869.05
2018-06-08T03:47:56.027Z,96866.66
2018-06-08T03:50:23.509Z,96864.20
2018-06-08T03:52:50.958Z,96862.51
2018-06-08T03:55:18.407Z,96859.44
2018-06-08T03:57:45.866Z,96855.73
2018-06-08T04:00:14.152Z,96850.05
2018-06-08T04:02:41.746Z,96848.05
2018-06-08T04:05:09.281Z,96848.91
2018-06-08T04:07:37.316Z,96850.51
2018-06-08T04:10:04.709Z,96845.28
2018-06-08T04:12:32.189Z,96840.98
2018-06-08T04:14:59.963Z,96833.92
2018-06-08T04:17:27.429Z,96833.58
2018-06-08T04:19:54.932Z,96839.20
2018-06-08T04:22:23.540Z,96830.05
2018-06-08T04:24:51.039Z,96831.79
2018-06-08T04:27:19.517Z,96835.13
2018-06-08T04:29:48.087Z,96827.40
2018-06-08T04:32:16.924Z,96828.27
2018-06-08T04:34:44.433Z,96831.06
2018-06-08T04:37:11.903Z,96840.26
2018-06-08T04:39:39.361Z,96834.48
2018-06-08T04:42:06.872Z,96840.11
2018-06-08T04:44:34.345Z,96846.46
2018-06-08T04:47:01.772Z,96838.06
2018-06-08T04:49:29.224Z,96846.08
2018-06-08T04:51:56.695Z,96846.55
2018-06-08T04:54:37.295Z,96844.45
2018-06-08T04:57:05.818Z,96849.59
2018-06-08T04:59:33.262Z,96841.01
2018-06-08T05:02:00.694Z,96846.94
2018-06-08T05:04:28.199Z,96843.48
2018-06-08T05:06:56.175Z,96840.49
2018-06-08T05:09:23.716Z,96837.18
2018-06-08T05:11:51.147Z,96835.81
2018-06-08T05:14:18.624Z,96827.28
2018-06-08T05:16:46.090Z,96831.71
2018-06-08T05:19:13.551Z,96822.23
2018-06-08T05:21:40.979Z,96823.58
2018-06-08T05:24:08.559Z,96837.06
2018-06-08T05:26:36.075Z,96838.30
2018-06-08T05:29:06.302Z,96839.24
2018-06-08T05:31:33.706Z,96838.05
2018-06-08T05:34:01.123Z,96840.63
2018-06-08T05:36:29.752Z,96845.86
2018-06-08T05:38:58.199Z,96835.48
2018-06-08T05:41:25.665Z,96845.15
2018-06-08T05:43:56.785Z,96847.47
2018-06-08T05:46:24.241Z,96854.64
2018-06-08T05:48:51.739Z,96853.06
2018-06-08T05:51:19.187Z,96848.30
2018-06-08T05:53:46.736Z,96855.05
2018-06-08T05:56:14.165Z,96853.33
2018-06-08T05:58:41.630Z,96852.87
2018-06-08T06:01:09.112Z,96859.19
2018-06-08T06:03:37.171Z,96857.06
2018-06-08T06:06:04.758Z,96860.72
2018-06-08T06:08:32.255Z,96854.63
2018-06-08T06:10:59.669Z,96857.80
2018-06-08T06:13:27.086Z,96861.98
2018-06-08T06:15:54.775Z,96863.38
2018-06-08T06:18:22.274Z,96859.05
2018-06-08T06:20:49.752Z,96861.95
2018-06-08T06:23:17.347Z,96866.45
2018-06-08T06:25:44.863Z,96866.34
2018-06-08T06:28:12.287Z,96864.52
2018-06-08T06:30:40.282Z,96868.81
2018-06-08T06:33:07.724Z,96879.45
2018-06-08T06:35:35.206Z,96876.70
2018-06-08T06:38:02.670Z,96876.37
2018-06-08T06:40:30.238Z,96881.97
2018-06-08T06:42:57.931Z,96885.86
2018-06-08T06:45:25.460Z,96885.53
2018-06-08T06:47:52.896Z,96888.52
2018-06-08T06:50:20.348Z,96881.42
2018-06-08T06:52:47.954Z,96880.09
2018-06-08T06:55:15.399Z,96881.27
2018-06-08T06:57:43.033Z,96881.59
2018-06-08T07:00:10.641Z,96887.31
2018-06-08T07:02:38.062Z,96874.80
2018-06-08T07:07:39.984Z,96882.44
2018-06-08T07:10:07.390Z,96882.84
2018-06-08T07:12:34.880Z,96884.19
2018-06-08T07:15:02.303Z,96882.70
2018-06-08T07:17:30.175Z,96884.80
2018-06-08T07:19:57.824Z,96881.46
2018-06-08T07:22:25.273Z,96882.55
2018-06-08T07:24:54.100Z,96881.50
2018-06-08T07:27:22.800Z,96879.72
2018-06-08T07:29:53.980Z,96885.41
2018-06-08T07:32:21.476Z,96884.98
2018-06-08T07:34:48.916Z,96885.41
2018-06-08T07:37:16.359Z,96884.98
2018-06-08T07:39:44.200Z,96881.72
2018-06-08T07:42:11.856Z,96881.66
2018-06-08T07:44:39.360Z,96874.34
2018-06-08T07:47:06.872Z,96877.90
2018-06-08T07:49:34.361Z,96869.27
2018-06-08T07:52:01.840Z,96877.52
2018-06-08T07:54:29.265Z,96869.67
2018-06-08T07:56:56.743Z,96875.06
2018-06-08T07:59:24.562Z,96869.28
2018-06-08T08:01:52.046Z,96868.10
2018-06-08T08:04:19.555Z,96873.00
2018-06-08T08:06:46.993Z,96868.70
2018-06-08T08:09:14.472Z,96869.59
2018-06-08T08:11:41.861Z,96865.95
2018-06-08T08:14:09.420Z,96860.27
2018-06-08T08:16:37.248Z,96865.61
2018-06-08T08:19:05.472Z,96863.41
2018-06-08T08:21:32.959Z,96866.79
2018-06-08T08:24:00.555Z,96865.74
2018-06-08T08:26:28.004Z,96860.33
2018-06-08T08:28:55.456Z,96862.97
2018-06-08T08:31:23.541Z,96863.82
2018-06-08T08:33:53.181Z,96855.80
2018-06-08T08:36:20.638Z,96856.62
2018-06-08T08:38:48.137Z,96847.72
2018-06-08T08:41:15.651Z,96849.66
2018-06-08T08:43:43.148Z,96854.86
2018-06-08T08:46:10.570Z,96855.25
2018-06-08T08:48:38.028Z,96854.14
2018-06-08T08:51:06.269Z,96853.31
2018-06-08T08:53:33.893Z,96856.10
2018-06-08T08:56:01.645Z,96856.77
2018-06-08T08:58:29.134Z,96852.61
2018-06-08T09:00:56.609Z,96848.19
2018-06-08T09:03:24.260Z,96844.65
2018-06-08T09:05:51.695Z,96839.45
2018-06-08T09:08:19.204Z,96834.70
2018-06-08T09:10:46.802Z,96836.98
2018-06-08T09:13:15.513Z,96830.95
2018-06-08T09:15:42.940Z,96829.70
2018-06-08T09:18:10.540Z,96828.00
2018-06-08T09:20:38.028Z,96825.41
2018-06-08T09:23:05.591Z,96829.06
2018-06-08T09:25:33.008Z,96831.56
2018-06-08T09:28:04.037Z,96832.25
2018-06-08T09:30:31.961Z,96826.33
2018-06-08T09:32:59.524Z,96821.06
2018-06-08T09:35:26.935Z,96821.73
2018-06-08T09:37:54.510Z,96817.31
2018-06-08T09:40:22.016Z,96808.68
2018-06-08T09:42:49.683Z,96810.19
2018-06-08T09:45:17.335Z,96809.91
2018-06-08T09:47:44.841Z,96812.34
2018-06-08T09:50:12.303Z,96812.37
2018-06-08T09:52:40.977Z,96810.34
2018-06-08T09:55:08.595Z,96807.50
2018-06-08T09:57:36.091Z,96798.77
2018-06-08T10:00:03.774Z,96805.73
2018-06-08T10:02:30.727Z,96804.67
2018-06-08T10:04:58.332Z,96801.58
2018-06-08T10:07:25.916Z,96805.99
2018-06-08T10:09:53.341Z,96808.52
2018-06-08T10:12:21.753Z,96800.27
2018-06-08T10:14:49.236Z,96802.19
2018-06-08T10:17:16.689Z,96801.98
2018-06-08T10:19:44.169Z,96804.03
2018-06-08T10:22:11.664Z,96810.09
2018-06-08T10:24:42.690Z,96794.05
2018-06-08T10:27:10.701Z,96793.66
2018-06-08T10:29:38.215Z,96791.83
2018-06-08T10:32:06.946Z,96791.38
2018-06-08T10:34:34.421Z,96785.20
2018-06-08T10:37:01.943Z,96790.62
2018-06-08T10:39:29.426Z,96792.72
2018-06-08T10:41:56.956Z,96787.88
2018-06-08T10:44:24.367Z,96787.87
2018-06-08T10:46:51.451Z,96792.34
2018-06-08T10:49:18.945Z,96780.11
2018-06-08T10:51:46.468Z,96784.31
2018-06-08T10:54:15.489Z,96785.30
2018-06-08T10:56:42.972Z,96774.47
2018-06-08T10:59:10.439Z,96783.94
2018-06-08T11:01:37.458Z,96780.73
2018-06-08T11:04:04.606Z,96778.07
2018-06-08T11:06:33.456Z,96778.39
2018-06-08T11:09:01.279Z,96775.34
2018-06-08T11:11:28.282Z,96768.99
2018-06-08T11:13:55.311Z,96779.93
2018-06-08T11:16:23.666Z,96774.76
2018-06-08T11:18:50.714Z,96771.34
2018-06-08T11:21:17.761Z,96772.89
2018-06-08T11:23:44.870Z,96764.30
2018-06-08T11:26:12.005Z,96760.43
2018-06-08T11:28:39.638Z,96757.63
2018-06-08T11:31:06.674Z,96753.30
2018-06-08T11:33:33.675Z,96752.90
2018-06-08T11:36:02.530Z,96750.12
2018-06-08T11:38:29.500Z,96751.55
2018-06-08T11:40:56.630Z,96750.69
2018-06-08T11:43:24.348Z,96748.38
2018-06-08T11:45:51.367Z,96737.16
2018-06-08T11:48:18.396Z,96746.17
2018-06-08T11:50:45.399Z,96739.30
2018-06-08T11:53:13.092Z,96733.78
2018-06-08T11:55:40.397Z,96739.37
2018-06-08T11:58:07.443Z,96731.30
2018-06-08T12:00:36.216Z,96730.80
2018-06-08T12:03:03.627Z,96729.84
2018-06-08T12:05:31.167Z,96721.45
2018-06-08T12:07:59.250Z,96718.01
2018-06-08T12:10:27.813Z,96714.67
2018-06-08T12:12:54.894Z,96721.70
2018-06-08T12:15:21.915Z,96716.52
2018-06-08T12:17:49.578Z,96722.75
2018-06-08T12:20:17.116Z,96720.52
2018-06-08T12:22:44.323Z,96717.25
2018-06-08T12:25:11.607Z,96720.23
2018-06-08T12:27:39.855Z,96719.89
2018-06-08T12:30:09.046Z,96713.38
2018-06-08T12:32:36.678Z,96698.84
2018-06-08T12:35:04.191Z,96703.56
2018-06-08T12:37:31.821Z,96696.94
2018-06-08T12:39:59.348Z,96697.97
2018-06-08T12:42:26.912Z,96691.25
2018-06-08T12:44:54.374Z,96697.27
2018-06-08T12:47:21.925Z,96694.13
2018-06-08T12:49:50.492Z,96693.70
2018-06-08T12:52:17.978Z,96689.45
2018-06-08T12:54:46.023Z,96680.20
2018-06-08T12:57:13.508Z,96679.39
2018-06-08T12:59:42.205Z,96678.30
2018-06-08T13:02:10.460Z,96673.56
2018-06-08T13:04:38.080Z,96678.18
2018-06-08T13:07:05.103Z,96681.95
2018-06-08T13:09:32.106Z,96676.82
2018-06-08T13:11:59.078Z,96681.76
2018-06-08T13:14:26.093Z,96686.80
2018-06-08T13:16:54.065Z,96684.50
2018-06-08T13:19:21.060Z,96671.93
2018-06-08T13:21:48.486Z,96678.47
2018-06-08T13:24:16.142Z,96669.09
2018-06-08T13:26:44.760Z,96673.98
2018-06-08T13:29:11.751Z,96671.92
2018-06-08T13:31:38.752Z,96663.20
2018-06-08T13:34:05.694Z,96665.54
2018-06-08T13:36:33.880Z,96664.22
2018-06-08T13:39:01.396Z,96662.31
2018-06-08T13:41:28.888Z,96664.86
2018-06-08T13:43:56.333Z,96661.56
2018-06-08T13:46:23.891Z,96667.80
2018-06-08T13:48:51.536Z,96656.89
2018-06-08T13:51:19.762Z,96662.40
2018-06-08T13:53:46.722Z,96653.58
2018-06-08T13:56:13.744Z,96643.74
2018-06-08T13:58:40.768Z,96659.44
2018-06-08T14:01:07.893Z,96652.84
2018-06-08T14:03:34.907Z,96653.36
2018-06-08T14:06:01.912Z,96648.23
2018-06-08T14:08:30.390Z,96649.08
2018-06-08T14:10:57.424Z,96649.95
2018-06-08T14:13:24.635Z,96652.28
2018-06-08T14:15:51.650Z,96658.36
2018-06-08T14:18:18.804Z,96651.75
2018-06-08T14:20:45.793Z,96648.58
2018-06-08T14:23:12.798Z,96654.10
2018-06-08T14:25:39.878Z,96649.97
2018-06-08T14:28:06.874Z,96653.58
2018-06-08T14:30:34.349Z,96662.89
2018-06-08T14:33:01.882Z,96657.72
2018-06-08T14:35:29.330Z,96662.37
2018-06-08T14:37:59.730Z,96657.02
2018-06-08T14:40:27.245Z,96663.51
2018-06-08T14:42:54.771Z,96656.08
2018-06-08T14:45:22.231Z,96662.35
2018-06-08T14:47:49.815Z,96662.08
2018-06-08T14:50:17.463Z,96662.77
2018-06-08T14:52:45.167Z,96663.34
2018-06-08T14:55:12.610Z,96667.80
2018-06-08T14:57:41.206Z,96671.55
2018-06-08T15:00:08.858Z,96671.89
2018-06-08T15:02:36.998Z,96668.36
2018-06-08T15:05:05.072Z,96663.73
2018-06-08T15:07:32.565Z,96659.89
2018-06-08T15:10:00.160Z,96658.36
2018-06-08T15:12:27.570Z,96659.75
2018-06-08T15:14:55.007Z,96660.40
2018-06-08T15:17:23.122Z,96662.66
2018-06-08T15:19:50.609Z,96665.17
2018-06-08T15:22:18.085Z,96665.08
2018-06-08T15:24:46.040Z,96670.45
2018-06-08T15:27:14.504Z,96674.59
2018-06-08T15:29:42.038Z,96674.00
2018-06-08T15:32:09.544Z,96668.94
2018-06-08T15:34:37.036Z,96672.36
2018-06-08T15:37:08.057Z,96675.35
2018-06-08T15:39:35.621Z,96669.41
2018-06-08T15:42:03.140Z,96672.09
2018-06-08T15:44:31.707Z,96671.63
2018-06-08T15:46:59.781Z,96677.52
2018-06-08T15:49:27.232Z,96679.80
2018-06-08T15:51:54.686Z,96683.12
2018-06-08T15:54:22.299Z,96687.25
2018-06-08T15:56:49.884Z,96690.66
2018-06-08T15:59:17.329Z,96689.41
2018-06-08T16:01:44.966Z,96684.87
2018-06-08T16:04:12.458Z,96701.95
2018-06-08T16:06:41.976Z,96720.12
2018-06-08T16:09:12.496Z,96720.52
2018-06-08T16:11:39.933Z,96725.94
2018-06-08T16:14:08.315Z,96735.00
2018-06-08T16:16:35.304Z,96728.59
2018-06-08T16:19:02.448Z,96724.34
2018-06-08T16:21:30.550Z,96729.62
2018-06-08T16:23:58.019Z,96727.52
2018-06-08T16:26:25.484Z,96729.86
2018-06-08T16:28:52.946Z,96732.30
2018-06-08T16:31:20.376Z,96728.57
2018-06-08T16:33:49.084Z,96727.68
2018-06-08T16:36:18.373Z,96727.57
2018-06-08T16:38:46.057Z,96734.34
2018-06-08T16:41:14.582Z,96724.08
2018-06-08T16:43:42.089Z,96720.80
2018-06-08T16:46:09.552Z,96715.75
2018-06-08T16:48:37.145Z,96717.84
2018-06-08T16:51:04.616Z,96716.27
2018-06-08T16:53:32.131Z,96711.26
2018-06-08T16:55:59.529Z,96715.63
2018-06-08T16:58:26.659Z,96708.84
2018-06-08T17:00:54.102Z,96718.19
2018-06-08T17:03:21.536Z,96719.27
2018-06-08T17:05:49.046Z,96732.41
2018-06-08T17:08:16.584Z,96728.75
2018-06-08T17:10:44.020Z,96731.54
2018-06-08T17:13:11.437Z,96730.77
2018-06-08T17:15:38.949Z,96739.17
2018-06-08T17:18:06.560Z,96730.50
2018-06-08T17:20:33.997Z,96731.89
2018-06-08T17:23:01.408Z,96736.70
2018-06-08T17:25:28.879Z,96742.08
2018-06-08T17:27:56.340Z,96749.53
2018-06-08T17:30:23.821Z,96751.96
2018-06-08T17:32:58.996Z,96754.11
2018-06-08T17:35:26.508Z,96755.02
2018-06-08T17:37:53.989Z,96760.89
2018-06-08T17:40:21.473Z,96752.20
2018-06-08T17:42:48.985Z,96760.14
2018-06-08T17:45:16.490Z,96765.98
2018-06-08T17:47:43.991Z,96756.36
2018-06-08T17:50:11.455Z,96756.88
2018-06-08T17:52:38.981Z,96762.59
2018-06-08T17:55:07.577Z,96768.48
2018-06-08T17:57:35.036Z,96787.66
2018-06-08T18:00:02.477Z,96783.78
2018-06-08T18:02:29.911Z,96785.88
2018-06-08T18:04:57.313Z,96778.58
2018-06-08T18:07:24.816Z,96781.56
2018-06-08T18:09:52.266Z,96778.64
2018-06-08T18:12:19.793Z,96776.34
2018-06-08T18:14:47.225Z,96782.61
2018-06-08T18:17:14.994Z,96781.42
2018-06-08T18:19:42.606Z,96779.28
2018-06-08T18:22:10.074Z,96789.69
2018-06-08T18:24:37.548Z,96790.50
2018-06-08T18:27:05.991Z,96797.95
2018-06-08T18:29:33.412Z,96803.49
2018-06-08T18:32:01.890Z,96808.67
2018-06-08T18:34:29.383Z,96806.56
2018-06-08T18:36:57.019Z,96813.80
2018-06-08T18:39:24.499Z,96817.61
2018-06-08T18:41:53.308Z,96816.95
2018-06-08T18:44:20.730Z,96818.14
2018-06-08T18:46:48.197Z,96823.47
2018-06-08T18:49:15.607Z,96817.88
2018-06-08T18:51:43.057Z,96812.12
2018-06-08T18:54:10.503Z,96816.53
2018-06-08T18:56:38.009Z,96815.51
2018-06-08T18:59:05.444Z,96814.52
2018-06-08T19:01:32.920Z,96826.08
2018-06-08T19:04:00.379Z,96828.94
2018-06-08T19:06:27.861Z,96822.13
2018-06-08T19:08:55.266Z,96827.55
2018-06-08T19:11:22.743Z,96821.88
2018-06-08T19:13:50.313Z,96821.51
2018-06-08T19:16:17.864Z,96827.35
2018-06-08T19:18:45.324Z,96832.02
2018-06-08T19:21:12.709Z,96829.34
2018-06-08T19:23:40.879Z,96833.92
2018-06-08T19:26:08.377Z,96829.36
2018-06-08T19:28:38.310Z,96828.11
2018-06-08T19:31:06.266Z,96827.30
2018-06-08T19:33:33.781Z,96830.39
2018-06-08T19:36:01.366Z,96828.74
2018-06-08T19:38:28.859Z,96836.78
2018-06-08T19:40:56.375Z,96826.95
2018-06-08T19:43:23.844Z,96827.70
2018-06-08T19:45:51.337Z,96833.70
2018-06-08T19:48:18.922Z,96831.09
2018-06-08T19:50:47.394Z,96834.27
2018-06-08T19:53:14.793Z,96842.59
2018-06-08T19:55:42.397Z,96843.16
2018-06-08T19:58:09.896Z,96855.66
2018-06-08T20:00:37.355Z,96860.27
2018-06-08T20:03:04.808Z,96854.20
2018-06-08T20:05:32.875Z,96854.11
2018-06-08T20:08:00.401Z,96858.67
2018-06-08T20:10:27.887Z,96864.33
2018-06-08T20:12:55.492Z,96870.58
2018-06-08T20:15:22.994Z,96872.89
2018-06-08T20:17:50.397Z,96870.23
2018-06-08T20:20:17.851Z,96874.67
2018-06-08T20:22:45.656Z,96868.93
2018-06-08T20:25:13.215Z,96864.67
2018-06-08T20:27:40.671Z,96873.70
2018-06-08T20:30:08.147Z,96870.98
2018-06-08T20:32:36.365Z,96875.63
2018-06-08T20:35:03.913Z,96873.06
2018-06-08T20:37:31.538Z,96879.45
2018-06-08T20:39:59.038Z,96880.59
2018-06-08T20:42:26.620Z,96884.85
2018-06-08T20:44:54.049Z,96890.23
2018-06-08T20:47:21.457Z,96894.14
2018-06-08T20:49:49.520Z,96882.31
2018-06-08T20:52:17.836Z,96886.23
2018-06-08T20:54:45.292Z,96884.81
2018-06-08T20:57:12.697Z,96885.64
2018-06-08T20:59:40.179Z,96884.98
2018-06-08T21:02:07.729Z,96885.73
2018-06-08T21:04:35.393Z,96891.48
2018-06-08T21:07:02.832Z,96894.90
2018-06-08T21:09:30.297Z,96891.73
2018-06-08T21:11:58.140Z,96887.91
2018-06-08T21:14:25.547Z,96885.88
2018-06-08T21:16:53.226Z,96880.98
2018-06-08T21:19:30.617Z,96879.31
2018-06-08T21:21:58.127Z,96882.31
2018-06-08T21:24:25.581Z,96878.89
2018-06-08T21:26:53.115Z,96871.23
2018-06-08T21:29:20.632Z,96875.55
2018-06-08T21:31:48.092Z,96881.77
2018-06-08T21:34:15.906Z,96877.70
2018-06-08T21:36:43.852Z,96875.73
2018-06-08T21:39:11.334Z,96884.03
2018-06-08T21:41:38.754Z,96876.46
2018-06-08T21:44:06.210Z,96885.30
2018-06-08T21:46:33.666Z,96879.48
2018-06-08T21:49:01.114Z,96878.56
2018-06-08T21:51:28.591Z,96879.55
2018-06-08T21:53:56.036Z,96884.05
2018-06-08T21:56:24.255Z,96885.06
2018-06-08T21:58:52.610Z,96885.38
2018-06-08T22:01:20.061Z,96885.73
2018-06-08T22:03:48.395Z,96894.13
2018-06-08T22:06:15.801Z,96887.06
2018-06-08T22:08:43.244Z,96890.31
2018-06-08T22:11:10.712Z,96879.92
2018-06-08T22:13:38.137Z,96883.22
2018-06-08T22:16:05.598Z,96874.32
2018-06-08T22:18:33.170Z,96879.14
2018-06-08T22:21:00.625Z,96876.54
2018-06-08T22:23:28.069Z,96878.55
2018-06-08T22:25:55.541Z,96875.20
2018-06-08T22:28:22.975Z,96877.30
2018-06-08T22:30:50.429Z,96870.71
2018-06-08T22:33:17.978Z,96877.53
2018-06-08T22:35:45.443Z,96871.30
2018-06-08T22:38:12.924Z,96877.28
2018-06-08T22:40:40.361Z,96882.25
2018-06-08T22:43:07.812Z,96879.28
2018-06-08T22:45:35.304Z,96879.53
2018-06-08T22:48:02.778Z,96878.88
2018-06-08T22:50:30.228Z,96883.37
2018-06-08T22:52:57.685Z,96883.39
2018-06-08T22:55:25.156Z,96882.83
2018-06-08T22:57:52.676Z,96883.39
2018-06-08T23:00:20.154Z,96875.83
2018-06-08T23:02:48.442Z,96877.17
2018-06-08T23:05:16.848Z,96879.24
2018-06-08T23:07:45.191Z,96881.51
2018-06-08T23:10:12.600Z,96877.77
2018-06-08T23:12:40.070Z,96874.75
2018-06-08T23:15:07.482Z,96876.70
2018-06-08T23:17:34.890Z,96872.58
2018-06-08T23:20:02.370Z,96874.39
2018-06-08T23:22:29.823Z,96872.22
2018-06-08T23:24:57.289Z,96870.06
2018-06-08T23:27:24.725Z,96870.55
2018-06-08T23:29:52.180Z,96873.81
2018-06-08T23:32:19.584Z,96867.91
2018-06-08T23:34:47.101Z,96872.78
2018-06-08T23:37:14.574Z,96874.27
2018-06-08T23:39:42.023Z,96877.51
2018-06-08T23:42:09.626Z,96877.86
2018-06-08T23:44:37.043Z,96879.81
2018-06-08T23:47:04.503Z,96875.72
2018-06-08T23:49:31.976Z,96875.33
2018-06-08T23:51:59.506Z,96880.50
2018-06-08T23:54:28.090Z,96882.56
2018-06-08T23:56:55.824Z,96876.37
2018-06-08T23:59:24.073Z,96881.52
